Düsseldorf Airport

EDDL · Renania del Norte-Westfalia, Alemania

METAR pasados EDDL · Aeropuerto Internacional de Düsseldorf

A continuación puedes ver los METAR de los últimos días. Selecciona un año para ver los METAR más antiguos, desde el año 2007 en adelante.

25 de junio de 2024

Hora Código Tiempo Temp. Visibilidad Cielo nuboso Viento METAR/SPECI
15:50
V
29 °C 10 km+ - 040° 040° 10 kt METAR EDDL 251350Z AUTO 04010KT 360V070 CAVOK 29/15 Q1014 NOSIG
15:20
V
29 °C 10 km+ - 020° 020° 9 kt METAR EDDL 251320Z AUTO 02009KT 320V070 CAVOK 29/15 Q1014 NOSIG
14:50
V
28 °C 10 km+ - Var Var 6 kt METAR EDDL 251250Z AUTO VRB06KT CAVOK 28/15 Q1014 NOSIG
14:20
V
28 °C 10 km+ - 030° 030° 5 kt METAR EDDL 251220Z AUTO 03005KT 280V080 CAVOK 28/15 Q1014 NOSIG
13:50
V
28 °C 10 km+ - 050° 050° 6 kt METAR EDDL 251150Z AUTO 05006KT 340V120 CAVOK 28/14 Q1015 NOSIG
13:20
V
27 °C 10 km+ - 060° 060° 10 kt METAR EDDL 251120Z AUTO 06010KT 020V090 CAVOK 27/14 Q1015 NOSIG
12:50
V
27 °C 10 km+ - 060° 060° 8 kt METAR EDDL 251050Z AUTO 06008KT 020V080 CAVOK 27/13 Q1015 NOSIG
12:20
V
27 °C 10 km+ - 060° 060° 8 kt METAR EDDL 251020Z AUTO 06008KT 350V110 CAVOK 27/14 Q1015 NOSIG
11:50
V
26 °C 10 km+ - 070° 070° 9 kt METAR EDDL 250950Z AUTO 07009KT 030V100 CAVOK 26/14 Q1015
11:20
V
26 °C 10 km+ - 060° 060° 8 kt METAR EDDL 250920Z AUTO 06008KT 020V090 CAVOK 26/13 Q1015
10:50
V
26 °C 10 km+ - 040° 040° 8 kt METAR EDDL 250850Z AUTO 04008KT 010V070 CAVOK 26/14 Q1015 NOSIG
10:20
V
25 °C 10 km+ - 340° 340° 4 kt METAR EDDL 250820Z AUTO 34004KT 290V030 CAVOK 25/16 Q1016 NOSIG
09:50
V
24 °C 10 km+ - 320° 320° 3 kt METAR EDDL 250750Z AUTO 32003KT 280V020 CAVOK 24/16 Q1016 NOSIG
09:20
V
23 °C 10 km+ - Var Var 3 kt METAR EDDL 250720Z AUTO VRB03KT CAVOK 23/15 Q1016
08:50
V
23 °C 10 km+ - 330° 330° 3 kt METAR EDDL 250650Z AUTO 33003KT 290V010 CAVOK 23/15 Q1016 NOSIG
08:20
V
22 °C 10 km+ - Var Var 2 kt METAR EDDL 250620Z AUTO VRB02KT CAVOK 22/16 Q1016 NOSIG
07:50
V
20 °C 10 km+ - Var Var 2 kt METAR EDDL 250550Z AUTO VRB02KT CAVOK 20/15 Q1016 NOSIG

24 de junio de 2024

Hora Código Tiempo Temp. Visibilidad Cielo nuboso Viento METAR/SPECI
23:20
V
20 °C 10 km+ - 030° 030° 5 kt METAR EDDL 242120Z AUTO 03005KT CAVOK 20/14 Q1017 NOSIG
22:50
V
21 °C 10 km+ - 030° 030° 5 kt METAR EDDL 242050Z AUTO 03005KT CAVOK 21/14 Q1017 NOSIG
22:20
V
22 °C 10 km+ - 030° 030° 5 kt METAR EDDL 242020Z AUTO 03005KT CAVOK 22/14 Q1017 NOSIG
21:50
V
23 °C 10 km+ - 030° 030° 5 kt METAR EDDL 241950Z AUTO 03005KT CAVOK 23/14 Q1017 NOSIG
21:20
V
24 °C 10 km+ - 040° 040° 5 kt METAR EDDL 241920Z AUTO 04005KT CAVOK 24/14 Q1017 NOSIG
20:50
V
25 °C 10 km+ - 030° 030° 4 kt METAR EDDL 241850Z AUTO 03004KT CAVOK 25/14 Q1017 NOSIG
20:20
V
26 °C 10 km+ - 040° 040° 7 kt METAR EDDL 241820Z AUTO 04007KT CAVOK 26/14 Q1017 NOSIG
19:50
V
26 °C 10 km+ - 060° 060° 7 kt METAR EDDL 241750Z AUTO 06007KT CAVOK 26/14 Q1017 NOSIG
19:20
V
26 °C 10 km+ - 020° 020° 5 kt METAR EDDL 241720Z AUTO 02005KT 340V050 CAVOK 26/13 Q1017 NOSIG
18:50
V
27 °C 10 km+ - 030° 030° 8 kt METAR EDDL 241650Z AUTO 03008KT 360V080 CAVOK 27/13 Q1017 NOSIG
18:20
V
27 °C 10 km+ - 350° 350° 5 kt METAR EDDL 241620Z AUTO 35005KT 330V040 CAVOK 27/13 Q1017 NOSIG
17:50
V
27 °C 10 km+ - 050° 050° 6 kt METAR EDDL 241550Z AUTO 05006KT 330V120 CAVOK 27/13 Q1017 NOSIG
17:20
V
27 °C 10 km+ - 030° 030° 6 kt METAR EDDL 241520Z AUTO 03006KT 360V060 CAVOK 27/13 Q1018 NOSIG
16:50
V
27 °C 10 km+ - 350° 350° 6 kt METAR EDDL 241450Z AUTO 35006KT 260V030 CAVOK 27/13 Q1018 NOSIG
16:20
V
27 °C 10 km+ - 340° 340° 5 kt METAR EDDL 241420Z AUTO 34005KT 250V010 CAVOK 27/14 Q1018 NOSIG
15:50
V
26 °C 10 km+ - 360° 360° 6 kt METAR EDDL 241350Z AUTO 36006KT CAVOK 26/14 Q1018 NOSIG
15:20
V
26 °C 10 km+ - 010° 010° 6 kt METAR EDDL 241320Z AUTO 01006KT 350V050 CAVOK 26/14 Q1019 NOSIG
14:50
V
27 °C 10 km+ - 350° 350° 4 kt METAR EDDL 241250Z AUTO 35004KT 310V050 CAVOK 27/15 Q1019 NOSIG
14:20
V
26 °C 10 km+ - 020° 020° 5 kt METAR EDDL 241220Z AUTO 02005KT 330V100 CAVOK 26/13 Q1019 NOSIG
13:50
V
26 °C 10 km+ - 350° 350° 4 kt METAR EDDL 241150Z AUTO 35004KT 280V040 CAVOK 26/14 Q1019 NOSIG
13:20
V
26 °C 10 km+ - Var Var 3 kt METAR EDDL 241120Z AUTO VRB03KT CAVOK 26/14 Q1020 NOSIG
12:50
V
26 °C 10 km+ - 340° 340° 4 kt METAR EDDL 241050Z AUTO 34004KT 290V030 CAVOK 26/14 Q1020 NOSIG
12:20
V
25 °C 10 km+ - 330° 330° 6 kt METAR EDDL 241020Z AUTO 33006KT 280V030 CAVOK 25/13 Q1020 NOSIG
11:50
V
25 °C 10 km+ - 360° 360° 3 kt METAR EDDL 240950Z AUTO 36003KT 270V070 9999 FEW046 25/14 Q1020 NOSIG
11:20
V
24 °C 10 km+ - 040° 040° 4 kt METAR EDDL 240920Z AUTO 04004KT 320V090 CAVOK 24/14 Q1020 NOSIG
10:50
V
24 °C 10 km+ - Var Var 2 kt METAR EDDL 240850Z AUTO VRB02KT CAVOK 24/14 Q1020 NOSIG
10:20
V
24 °C 10 km+ - Var Var 2 kt METAR EDDL 240820Z AUTO VRB02KT CAVOK 24/13 Q1021 NOSIG
09:50
V
23 °C 10 km+ - Var Var 2 kt METAR EDDL 240750Z AUTO VRB02KT CAVOK 23/15 Q1021 NOSIG
09:20
V
22 °C 10 km+ - Var Var 1 kt METAR EDDL 240720Z AUTO VRB01KT CAVOK 22/14 Q1021 NOSIG
08:50
V
21 °C 10 km+ - Var Var 1 kt METAR EDDL 240650Z AUTO VRB01KT CAVOK 21/14 Q1021 NOSIG
08:20
V
20 °C 10 km+ - Var Var 2 kt METAR EDDL 240620Z AUTO VRB02KT CAVOK 20/14 Q1021 NOSIG
07:50
V
18 °C 10 km+ - Var Var 2 kt METAR EDDL 240550Z AUTO VRB02KT CAVOK 18/15 Q1020 NOSIG
07:20
V
17 °C 10 km+ - 050° 050° 3 kt METAR EDDL 240520Z AUTO 05003KT 010V100 CAVOK 17/14 Q1020 NOSIG
06:50
V
16 °C 10 km+ - 040° 040° 2 kt METAR EDDL 240450Z AUTO 04002KT CAVOK 16/14 Q1020 NOSIG
06:20
V
14 °C 10 km+ - Var Var 1 kt METAR EDDL 240420Z AUTO VRB01KT CAVOK 14/13 Q1020 NOSIG
05:50
V
13 °C 10 km+ - Var Var 2 kt METAR EDDL 240350Z AUTO VRB02KT CAVOK 13/12 Q1020 NOSIG
05:20
V
13 °C 10 km+ - Var Var 2 kt METAR EDDL 240320Z AUTO VRB02KT CAVOK 13/13 Q1020 NOSIG
04:50
V
13 °C 10 km+ - 040° 040° 1 kt METAR EDDL 240250Z AUTO 04001KT CAVOK 13/13 Q1020 NOSIG
04:20
V
14 °C 10 km+ - 360° 360° 2 kt METAR EDDL 240220Z AUTO 36002KT CAVOK 14/13 Q1020 NOSIG
03:50
V
14 °C 10 km+ - 340° 340° 2 kt METAR EDDL 240150Z AUTO 34002KT CAVOK 14/13 Q1020 NOSIG
03:20
V
14 °C 10 km+ - 010° 010° 2 kt METAR EDDL 240120Z AUTO 01002KT CAVOK 14/13 Q1020 NOSIG
02:50
V
14 °C 10 km+ - 010° 010° 1 kt METAR EDDL 240050Z AUTO 01001KT CAVOK 14/13 Q1020 NOSIG
02:20
V
14 °C 10 km+ - Var Var 1 kt METAR EDDL 240020Z AUTO VRB01KT CAVOK 14/13 Q1020 NOSIG
01:50
V
15 °C 10 km+ - 060° 060° 2 kt METAR EDDL 232350Z AUTO 06002KT CAVOK 15/13 Q1020 NOSIG
01:20
V
15 °C 10 km+ - 050° 050° 2 kt METAR EDDL 232320Z AUTO 05002KT CAVOK 15/13 Q1020 NOSIG
00:50
V
15 °C 10 km+ - 040° 040° 2 kt METAR EDDL 232250Z AUTO 04002KT CAVOK 15/14 Q1020 NOSIG
00:20
V
16 °C 10 km+ - 020° 020° 2 kt METAR EDDL 232220Z AUTO 02002KT CAVOK 16/14 Q1020 NOSIG

23 de junio de 2024

Hora Código Tiempo Temp. Visibilidad Cielo nuboso Viento METAR/SPECI
23:50
V
16 °C 10 km+ - Var Var 1 kt METAR EDDL 232150Z AUTO VRB01KT CAVOK 16/14 Q1020 NOSIG
23:20
V
16 °C 10 km+ - Var Var 1 kt METAR EDDL 232120Z AUTO VRB01KT CAVOK 16/14 Q1020 NOSIG
22:50
V
16 °C 10 km+ - 070° 070° 2 kt METAR EDDL 232050Z AUTO 07002KT CAVOK 16/14 Q1020 NOSIG
22:20
V
18 °C 10 km+ - Var Var 1 kt METAR EDDL 232020Z AUTO VRB01KT CAVOK 18/15 Q1020 NOSIG
21:50
V
21 °C 10 km+ - Var Var 1 kt METAR EDDL 231950Z AUTO VRB01KT CAVOK 21/14 Q1020 NOSIG
21:20
V
22 °C 10 km+ - 340° 340° 3 kt METAR EDDL 231920Z AUTO 34003KT CAVOK 22/14 Q1020 NOSIG
20:50
V
23 °C 10 km+ - 350° 350° 4 kt METAR EDDL 231850Z AUTO 35004KT CAVOK 23/14 Q1019 NOSIG
20:20
V
24 °C 10 km+ - 330° 330° 6 kt METAR EDDL 231820Z AUTO 33006KT 290V360 CAVOK 24/14 Q1019 NOSIG
19:50
V
25 °C 10 km+ - 360° 360° 5 kt METAR EDDL 231750Z AUTO 36005KT 320V030 CAVOK 25/14 Q1019 NOSIG
19:20
V
25 °C 10 km+ - 340° 340° 6 kt METAR EDDL 231720Z AUTO 34006KT CAVOK 25/13 Q1019 NOSIG
18:50
V
25 °C 10 km+ - 350° 350° 5 kt METAR EDDL 231650Z AUTO 35005KT 320V020 CAVOK 25/13 Q1019 NOSIG
18:20
V
24 °C 10 km+ - 330° 330° 6 kt METAR EDDL 231620Z AUTO 33006KT CAVOK 24/13 Q1019 NOSIG
17:50
V
25 °C 10 km+ - 310° 310° 6 kt METAR EDDL 231550Z AUTO 31006KT 270V340 CAVOK 25/14 Q1019 NOSIG
17:20
V
24 °C 10 km+ - 310° 310° 5 kt METAR EDDL 231520Z AUTO 31005KT 270V350 CAVOK 24/13 Q1019 NOSIG
16:50
V
24 °C 10 km+ - 310° 310° 7 kt METAR EDDL 231450Z AUTO 31007KT 280V340 9999 FEW049 24/13 Q1019 NOSIG
16:20
V
25 °C 10 km+ - 250° 250° 6 kt METAR EDDL 231420Z AUTO 25006KT 200V310 9999 FEW046 25/13 Q1019 NOSIG
15:50
V
24 °C 10 km+ - 270° 270° 5 kt METAR EDDL 231350Z AUTO 27005KT 210V300 CAVOK 24/13 Q1019 NOSIG
15:20
V
23 °C 10 km+ - 250° 250° 5 kt METAR EDDL 231320Z AUTO 25005KT 210V340 CAVOK 23/13 Q1019 NOSIG
14:50
V
24 °C 10 km+ - 280° 280° 6 kt METAR EDDL 231250Z AUTO 28006KT 230V340 CAVOK 24/14 Q1019 NOSIG
14:20
V
23 °C 10 km+ - 310° 310° 5 kt METAR EDDL 231220Z AUTO 31005KT 240V340 9999 FEW043 23/13 Q1019 NOSIG
13:50
V
23 °C 10 km+ - Var Var 5 kt METAR EDDL 231150Z AUTO VRB05KT 9999 FEW040 SCT048 23/14 Q1019 NOSIG
13:20
V
23 °C 10 km+ - Var Var 3 kt METAR EDDL 231120Z AUTO VRB03KT 9999 FEW038 23/14 Q1020 NOSIG
12:50
V
22 °C 10 km+ - Var Var 3 kt METAR EDDL 231050Z AUTO VRB03KT 9999 FEW037 22/13 Q1020 NOSIG
12:20
V
22 °C 10 km+ - Var Var 3 kt METAR EDDL 231020Z AUTO VRB03KT 9999 FEW037 22/14 Q1020 BECMG 26005KT
11:50
V
21 °C 10 km+ - 220° 220° 5 kt METAR EDDL 230950Z AUTO 22005KT 200V270 9999 FEW032 21/13 Q1020 NOSIG
11:20
V
21 °C 10 km+ - Var Var 3 kt METAR EDDL 230920Z AUTO VRB03KT 9999 FEW028 21/13 Q1020 BECMG 27005KT
10:50
V
21 °C 10 km+ - 250° 250° 4 kt METAR EDDL 230850Z AUTO 25004KT 210V310 9999 FEW026 21/13 Q1020 NOSIG
10:20
V
20 °C 10 km+ - Var Var 3 kt METAR EDDL 230820Z AUTO VRB03KT CAVOK 20/13 Q1020 BECMG 27005KT
09:50
V
20 °C 10 km+ - Var Var 2 kt METAR EDDL 230750Z AUTO VRB02KT CAVOK 20/14 Q1020 BECMG 27005KT
09:20
V
19 °C 10 km+ - Var Var 2 kt METAR EDDL 230720Z AUTO VRB02KT CAVOK 19/14 Q1019 BECMG 27005KT
08:50
V
18 °C 10 km+ - Var Var 2 kt METAR EDDL 230650Z AUTO VRB02KT CAVOK 18/13 Q1019 NOSIG
08:20
V
17 °C 10 km+ - Var Var 2 kt METAR EDDL 230620Z AUTO VRB02KT CAVOK 17/14 Q1019 NOSIG
07:50
V
16 °C 10 km+ - 230° 230° 3 kt METAR EDDL 230550Z AUTO 23003KT CAVOK 16/13 Q1019 NOSIG
Cambiar esta información